sensor_id;sensor_type;location;lat;lon;timestamp;temperature;humidity
5164;DHT22;2601;50.224;10.126;2022-09-09T00:00:47;13.20;99.90
5164;DHT22;2601;50.224;10.126;2022-09-09T00:03:18;13.30;99.90
5164;DHT22;2601;50.224;10.126;2022-09-09T00:06:08;13.30;99.90
5164;DHT22;2601;50.224;10.126;2022-09-09T00:09:13;13.30;99.90
5164;DHT22;2601;50.224;10.126;2022-09-09T00:14:59;13.20;99.90
5164;DHT22;2601;50.224;10.126;2022-09-09T00:20:44;12.90;99.90
5164;DHT22;2601;50.224;10.126;2022-09-09T00:23:29;12.90;99.90
5164;DHT22;2601;50.224;10.126;2022-09-09T00:31:28;12.90;99.90
5164;DHT22;2601;50.224;10.126;2022-09-09T00:33:58;12.90;99.90
5164;DHT22;2601;50.224;10.126;2022-09-09T00:36:27;12.90;99.90
5164;DHT22;2601;50.224;10.126;2022-09-09T00:39:00;12.80;99.90
5164;DHT22;2601;50.224;10.126;2022-09-09T00:55:07;12.90;99.90
5164;DHT22;2601;50.224;10.126;2022-09-09T00:57:35;12.80;99.90
5164;DHT22;2601;50.224;10.126;2022-09-09T01:00:21;12.70;99.90
5164;DHT22;2601;50.224;10.126;2022-09-09T01:11:16;12.80;99.90
5164;DHT22;2601;50.224;10.126;2022-09-09T01:13:45;12.70;99.90
5164;DHT22;2601;50.224;10.126;2022-09-09T01:16:16;12.70;99.90
5164;DHT22;2601;50.224;10.126;2022-09-09T01:18:49;12.80;99.90
5164;DHT22;2601;50.224;10.126;2022-09-09T01:26:42;12.70;99.90
5164;DHT22;2601;50.224;10.126;2022-09-09T01:29:11;12.60;99.90
5164;DHT22;2601;50.224;10.126;2022-09-09T01:32:37;12.60;99.90
5164;DHT22;2601;50.224;10.126;2022-09-09T01:34:39;12.60;99.90
5164;DHT22;2601;50.224;10.126;2022-09-09T01:37:12;12.60;99.90
5164;DHT22;2601;50.224;10.126;2022-09-09T01:39:40;12.80;99.90
5164;DHT22;2601;50.224;10.126;2022-09-09T01:42:09;12.90;99.90
5164;DHT22;2601;50.224;10.126;2022-09-09T01:44:38;12.80;99.90
5164;DHT22;2601;50.224;10.126;2022-09-09T01:47:04;12.80;99.90
5164;DHT22;2601;50.224;10.126;2022-09-09T01:49:30;12.80;99.90
5164;DHT22;2601;50.224;10.126;2022-09-09T01:51:57;12.80;99.90
5164;DHT22;2601;50.224;10.126;2022-09-09T01:54:26;12.80;99.90
5164;DHT22;2601;50.224;10.126;2022-09-09T01:59:57;12.90;99.90
5164;DHT22;2601;50.224;10.126;2022-09-09T02:07:41;12.90;99.90
5164;DHT22;2601;50.224;10.126;2022-09-09T02:10:17;13.00;99.90
5164;DHT22;2601;50.224;10.126;2022-09-09T02:12:53;12.90;99.90
5164;DHT22;2601;50.224;10.126;2022-09-09T02:15:23;12.80;99.90
5164;DHT22;2601;50.224;10.126;2022-09-09T02:17:52;12.70;99.90
5164;DHT22;2601;50.224;10.126;2022-09-09T02:20:19;12.70;99.90
5164;DHT22;2601;50.224;10.126;2022-09-09T02:22:49;12.70;99.90
5164;DHT22;2601;50.224;10.126;2022-09-09T02:25:17;12.80;99.90
5164;DHT22;2601;50.224;10.126;2022-09-09T02:27:45;12.60;99.90
5164;DHT22;2601;50.224;10.126;2022-09-09T02:30:12;12.50;99.90
5164;DHT22;2601;50.224;10.126;2022-09-09T02:32:39;12.50;99.90
5164;DHT22;2601;50.224;10.126;2022-09-09T02:35:14;12.50;99.90
5164;DHT22;2601;50.224;10.126;2022-09-09T02:37:42;12.70;99.90
5164;DHT22;2601;50.224;10.126;2022-09-09T02:40:10;12.70;99.90
5164;DHT22;2601;50.224;10.126;2022-09-09T02:42:44;12.80;99.90
5164;DHT22;2601;50.224;10.126;2022-09-09T02:45:13;12.90;99.90
5164;DHT22;2601;50.224;10.126;2022-09-09T02:47:59;13.00;99.90
5164;DHT22;2601;50.224;10.126;2022-09-09T02:50:37;12.90;99.90
5164;DHT22;2601;50.224;10.126;2022-09-09T02:53:35;12.90;99.90
5164;DHT22;2601;50.224;10.126;2022-09-09T02:56:10;12.90;99.90
5164;DHT22;2601;50.224;10.126;2022-09-09T02:58:39;12.80;99.90
5164;DHT22;2601;50.224;10.126;2022-09-09T03:01:05;12.70;99.90
5164;DHT22;2601;50.224;10.126;2022-09-09T03:03:31;12.80;99.90
5164;DHT22;2601;50.224;10.126;2022-09-09T03:05:57;12.70;99.90
5164;DHT22;2601;50.224;10.126;2022-09-09T03:08:23;12.80;99.90
5164;DHT22;2601;50.224;10.126;2022-09-09T03:10:49;12.80;99.90
5164;DHT22;2601;50.224;10.126;2022-09-09T03:13:14;12.90;99.90
5164;DHT22;2601;50.224;10.126;2022-09-09T03:15:41;12.80;99.90
5164;DHT22;2601;50.224;10.126;2022-09-09T03:18:06;12.80;99.90
5164;DHT22;2601;50.224;10.126;2022-09-09T03:20:32;12.80;99.90
5164;DHT22;2601;50.224;10.126;2022-09-09T03:22:59;12.90;99.90
5164;DHT22;2601;50.224;10.126;2022-09-09T03:25:25;12.60;99.90
5164;DHT22;2601;50.224;10.126;2022-09-09T03:27:53;12.60;99.90
5164;DHT22;2601;50.224;10.126;2022-09-09T03:30:22;12.60;99.90
5164;DHT22;2601;50.224;10.126;2022-09-09T03:32:47;12.60;99.90
5164;DHT22;2601;50.224;10.126;2022-09-09T03:35:14;12.60;99.90
5164;DHT22;2601;50.224;10.126;2022-09-09T03:37:40;12.60;99.90
5164;DHT22;2601;50.224;10.126;2022-09-09T03:40:07;12.50;99.90
5164;DHT22;2601;50.224;10.126;2022-09-09T03:42:35;12.50;99.90
5164;DHT22;2601;50.224;10.126;2022-09-09T03:45:03;12.50;99.90
5164;DHT22;2601;50.224;10.126;2022-09-09T03:47:30;12.80;99.90
5164;DHT22;2601;50.224;10.126;2022-09-09T03:49:56;12.70;99.90
5164;DHT22;2601;50.224;10.126;2022-09-09T03:52:21;12.80;99.90
5164;DHT22;2601;50.224;10.126;2022-09-09T03:54:50;12.80;99.90
5164;DHT22;2601;50.224;10.126;2022-09-09T03:57:17;12.80;99.90
5164;DHT22;2601;50.224;10.126;2022-09-09T03:59:43;12.80;99.90
5164;DHT22;2601;50.224;10.126;2022-09-09T04:02:09;12.80;99.90
5164;DHT22;2601;50.224;10.126;2022-09-09T04:04:34;12.70;99.90
5164;DHT22;2601;50.224;10.126;2022-09-09T04:07:00;12.50;99.90
5164;DHT22;2601;50.224;10.126;2022-09-09T04:09:26;12.50;99.90
5164;DHT22;2601;50.224;10.126;2022-09-09T04:11:52;12.50;99.90
5164;DHT22;2601;50.224;10.126;2022-09-09T04:14:19;12.50;99.90
5164;DHT22;2601;50.224;10.126;2022-09-09T04:16:45;12.50;99.90
5164;DHT22;2601;50.224;10.126;2022-09-09T04:19:12;12.50;99.90
5164;DHT22;2601;50.224;10.126;2022-09-09T04:21:39;12.50;99.90
5164;DHT22;2601;50.224;10.126;2022-09-09T04:24:06;12.40;99.90
5164;DHT22;2601;50.224;10.126;2022-09-09T04:26:33;12.50;99.90
5164;DHT22;2601;50.224;10.126;2022-09-09T04:28:58;12.40;99.90
5164;DHT22;2601;50.224;10.126;2022-09-09T04:31:24;12.40;99.90
5164;DHT22;2601;50.224;10.126;2022-09-09T04:33:51;12.40;99.90
5164;DHT22;2601;50.224;10.126;2022-09-09T04:36:17;12.40;99.90
5164;DHT22;2601;50.224;10.126;2022-09-09T04:38:45;12.60;99.90
5164;DHT22;2601;50.224;10.126;2022-09-09T04:41:11;12.70;99.90
5164;DHT22;2601;50.224;10.126;2022-09-09T04:43:40;12.70;99.90
5164;DHT22;2601;50.224;10.126;2022-09-09T04:46:06;12.70;99.90
5164;DHT22;2601;50.224;10.126;2022-09-09T04:48:32;12.80;99.90
5164;DHT22;2601;50.224;10.126;2022-09-09T04:51:05;12.80;99.90
5164;DHT22;2601;50.224;10.126;2022-09-09T04:53:32;12.70;99.90
5164;DHT22;2601;50.224;10.126;2022-09-09T04:56:06;12.70;99.90
5164;DHT22;2601;50.224;10.126;2022-09-09T04:58:33;12.90;99.90
5164;DHT22;2601;50.224;10.126;2022-09-09T05:01:10;13.10;99.90
5164;DHT22;2601;50.224;10.126;2022-09-09T05:03:36;13.10;99.90
5164;DHT22;2601;50.224;10.126;2022-09-09T05:06:11;13.00;99.90
5164;DHT22;2601;50.224;10.126;2022-09-09T05:08:38;13.00;99.90
5164;DHT22;2601;50.224;10.126;2022-09-09T05:11:22;13.00;99.90
5164;DHT22;2601;50.224;10.126;2022-09-09T05:13:51;13.10;99.90
5164;DHT22;2601;50.224;10.126;2022-09-09T05:16:18;13.10;99.90
5164;DHT22;2601;50.224;10.126;2022-09-09T05:18:45;13.00;99.90
5164;DHT22;2601;50.224;10.126;2022-09-09T05:21:13;12.90;99.90
5164;DHT22;2601;50.224;10.126;2022-09-09T05:23:39;13.00;99.90
5164;DHT22;2601;50.224;10.126;2022-09-09T05:26:06;13.00;99.90
5164;DHT22;2601;50.224;10.126;2022-09-09T05:28:34;13.00;99.90
5164;DHT22;2601;50.224;10.126;2022-09-09T05:31:06;13.00;99.90
5164;DHT22;2601;50.224;10.126;2022-09-09T05:33:38;13.00;99.90
5164;DHT22;2601;50.224;10.126;2022-09-09T05:36:17;12.90;99.90
5164;DHT22;2601;50.224;10.126;2022-09-09T05:38:43;12.80;99.90
5164;DHT22;2601;50.224;10.126;2022-09-09T05:41:10;12.80;99.90
5164;DHT22;2601;50.224;10.126;2022-09-09T05:43:41;12.80;99.90
5164;DHT22;2601;50.224;10.126;2022-09-09T05:46:18;12.70;99.90
5164;DHT22;2601;50.224;10.126;2022-09-09T05:48:45;12.70;99.90
5164;DHT22;2601;50.224;10.126;2022-09-09T05:51:19;12.70;99.90
5164;DHT22;2601;50.224;10.126;2022-09-09T05:53:48;12.80;99.90
5164;DHT22;2601;50.224;10.126;2022-09-09T05:56:21;13.00;99.90
5164;DHT22;2601;50.224;10.126;2022-09-09T05:58:48;13.10;99.90
5164;DHT22;2601;50.224;10.126;2022-09-09T06:01:23;13.20;99.90
5164;DHT22;2601;50.224;10.126;2022-09-09T06:03:50;13.40;99.90
5164;DHT22;2601;50.224;10.126;2022-09-09T06:06:18;13.50;99.90
5164;DHT22;2601;50.224;10.126;2022-09-09T06:08:46;13.70;99.90
5164;DHT22;2601;50.224;10.126;2022-09-09T06:11:23;13.80;99.90
5164;DHT22;2601;50.224;10.126;2022-09-09T06:13:49;14.00;99.90
5164;DHT22;2601;50.224;10.126;2022-09-09T06:16:22;14.10;99.90
5164;DHT22;2601;50.224;10.126;2022-09-09T06:18:52;14.20;99.90
5164;DHT22;2601;50.224;10.126;2022-09-09T06:21:21;14.40;99.90
5164;DHT22;2601;50.224;10.126;2022-09-09T06:23:48;14.60;99.90
5164;DHT22;2601;50.224;10.126;2022-09-09T06:26:16;14.90;99.90
5164;DHT22;2601;50.224;10.126;2022-09-09T06:28:44;14.90;99.90
5164;DHT22;2601;50.224;10.126;2022-09-09T06:31:12;15.10;99.90
5164;DHT22;2601;50.224;10.126;2022-09-09T06:33:39;15.20;99.90
5164;DHT22;2601;50.224;10.126;2022-09-09T06:36:11;15.50;99.90
5164;DHT22;2601;50.224;10.126;2022-09-09T06:38:37;15.70;99.90
5164;DHT22;2601;50.224;10.126;2022-09-09T06:41:04;15.80;99.90
5164;DHT22;2601;50.224;10.126;2022-09-09T06:43:31;16.00;99.90
5164;DHT22;2601;50.224;10.126;2022-09-09T06:46:02;16.20;99.90
5164;DHT22;2601;50.224;10.126;2022-09-09T06:48:28;16.40;99.90
5164;DHT22;2601;50.224;10.126;2022-09-09T06:51:05;16.50;99.90
5164;DHT22;2601;50.224;10.126;2022-09-09T06:53:33;16.80;99.90
5164;DHT22;2601;50.224;10.126;2022-09-09T06:56:00;16.80;99.90
5164;DHT22;2601;50.224;10.126;2022-09-09T06:58:28;16.70;99.90
5164;DHT22;2601;50.224;10.126;2022-09-09T07:01:05;16.80;99.90
5164;DHT22;2601;50.224;10.126;2022-09-09T07:03:31;17.00;99.90
5164;DHT22;2601;50.224;10.126;2022-09-09T07:05:57;17.10;99.90
5164;DHT22;2601;50.224;10.126;2022-09-09T07:08:23;17.20;99.90
5164;DHT22;2601;50.224;10.126;2022-09-09T07:10:51;17.20;99.90
5164;DHT22;2601;50.224;10.126;2022-09-09T07:13:23;17.50;99.90
5164;DHT22;2601;50.224;10.126;2022-09-09T07:15:51;18.00;99.90
5164;DHT22;2601;50.224;10.126;2022-09-09T07:18:18;18.10;99.90
5164;DHT22;2601;50.224;10.126;2022-09-09T07:20:53;18.00;99.90
5164;DHT22;2601;50.224;10.126;2022-09-09T07:23:20;17.70;99.90
5164;DHT22;2601;50.224;10.126;2022-09-09T07:25:46;17.70;99.90
5164;DHT22;2601;50.224;10.126;2022-09-09T07:28:13;17.70;99.90
5164;DHT22;2601;50.224;10.126;2022-09-09T07:30:39;17.70;99.90
5164;DHT22;2601;50.224;10.126;2022-09-09T07:33:05;17.80;99.90
5164;DHT22;2601;50.224;10.126;2022-09-09T07:35:33;17.90;99.90
5164;DHT22;2601;50.224;10.126;2022-09-09T07:38:01;18.00;99.90
5164;DHT22;2601;50.224;10.126;2022-09-09T07:40:26;18.10;99.90
5164;DHT22;2601;50.224;10.126;2022-09-09T07:42:52;18.00;99.90
5164;DHT22;2601;50.224;10.126;2022-09-09T07:45:19;18.00;99.90
5164;DHT22;2601;50.224;10.126;2022-09-09T07:47:44;18.30;99.90
5164;DHT22;2601;50.224;10.126;2022-09-09T07:50:10;18.40;99.90
5164;DHT22;2601;50.224;10.126;2022-09-09T07:52:37;18.40;99.90
5164;DHT22;2601;50.224;10.126;2022-09-09T07:55:03;18.50;99.90
5164;DHT22;2601;50.224;10.126;2022-09-09T07:57:30;18.50;99.90
5164;DHT22;2601;50.224;10.126;2022-09-09T07:59:57;18.50;99.90
5164;DHT22;2601;50.224;10.126;2022-09-09T08:02:24;18.70;99.90
5164;DHT22;2601;50.224;10.126;2022-09-09T08:04:51;18.80;99.90
5164;DHT22;2601;50.224;10.126;2022-09-09T08:07:17;18.70;99.90
5164;DHT22;2601;50.224;10.126;2022-09-09T08:09:43;18.30;99.90
5164;DHT22;2601;50.224;10.126;2022-09-09T08:12:09;18.40;99.90
5164;DHT22;2601;50.224;10.126;2022-09-09T08:14:36;18.70;99.90
5164;DHT22;2601;50.224;10.126;2022-09-09T08:17:02;18.60;99.90
5164;DHT22;2601;50.224;10.126;2022-09-09T08:19:28;18.90;99.90
5164;DHT22;2601;50.224;10.126;2022-09-09T08:21:59;18.70;99.90
5164;DHT22;2601;50.224;10.126;2022-09-09T08:24:27;18.70;99.90
5164;DHT22;2601;50.224;10.126;2022-09-09T08:26:53;18.50;99.90
5164;DHT22;2601;50.224;10.126;2022-09-09T08:29:19;18.60;99.90
5164;DHT22;2601;50.224;10.126;2022-09-09T08:31:46;18.70;99.90
5164;DHT22;2601;50.224;10.126;2022-09-09T08:34:13;18.80;99.90
5164;DHT22;2601;50.224;10.126;2022-09-09T08:36:43;18.90;99.90
5164;DHT22;2601;50.224;10.126;2022-09-09T08:39:11;18.90;99.90
5164;DHT22;2601;50.224;10.126;2022-09-09T08:57:41;18.60;99.90
5164;DHT22;2601;50.224;10.126;2022-09-09T09:00:10;18.70;99.90
5164;DHT22;2601;50.224;10.126;2022-09-09T09:03:15;18.70;99.90
5164;DHT22;2601;50.224;10.126;2022-09-09T09:11:06;18.90;99.90
5164;DHT22;2601;50.224;10.126;2022-09-09T09:13:40;19.90;99.90
5164;DHT22;2601;50.224;10.126;2022-09-09T09:16:33;20.60;99.90
5164;DHT22;2601;50.224;10.126;2022-09-09T09:19:00;20.20;99.90
5164;DHT22;2601;50.224;10.126;2022-09-09T09:23:57;21.50;99.90
5164;DHT22;2601;50.224;10.126;2022-09-09T09:26:28;21.60;99.90
5164;DHT22;2601;50.224;10.126;2022-09-09T09:28:56;22.30;99.90
5164;DHT22;2601;50.224;10.126;2022-09-09T09:31:24;22.60;99.90
5164;DHT22;2601;50.224;10.126;2022-09-09T09:33:56;23.30;99.90
5164;DHT22;2601;50.224;10.126;2022-09-09T09:36:45;23.80;99.40
5164;DHT22;2601;50.224;10.126;2022-09-09T09:39:26;24.40;98.60
5164;DHT22;2601;50.224;10.126;2022-09-09T09:41:53;24.50;97.20
5164;DHT22;2601;50.224;10.126;2022-09-09T09:44:28;23.90;97.20
5164;DHT22;2601;50.224;10.126;2022-09-09T09:47:15;23.80;97.20
5164;DHT22;2601;50.224;10.126;2022-09-09T09:52:23;22.50;98.80
5164;DHT22;2601;50.224;10.126;2022-09-09T09:54:50;22.30;99.30
5164;DHT22;2601;50.224;10.126;2022-09-09T09:57:18;21.80;99.10
5164;DHT22;2601;50.224;10.126;2022-09-09T09:59:49;21.50;99.90
5164;DHT22;2601;50.224;10.126;2022-09-09T10:02:25;21.30;99.90
5164;DHT22;2601;50.224;10.126;2022-09-09T10:05:12;21.30;99.90
5164;DHT22;2601;50.224;10.126;2022-09-09T10:07:38;21.80;99.90
5164;DHT22;2601;50.224;10.126;2022-09-09T10:10:04;22.00;98.90
5164;DHT22;2601;50.224;10.126;2022-09-09T10:23:41;21.60;99.70
5164;DHT22;2601;50.224;10.126;2022-09-09T10:32:01;20.10;99.90
5164;DHT22;2601;50.224;10.126;2022-09-09T10:42:38;20.90;99.90
5164;DHT22;2601;50.224;10.126;2022-09-09T10:45:17;22.20;99.90
5164;DHT22;2601;50.224;10.126;2022-09-09T10:56:10;21.70;99.20
5164;DHT22;2601;50.224;10.126;2022-09-09T11:04:26;20.10;99.90
5164;DHT22;2601;50.224;10.126;2022-09-09T11:06:56;19.80;99.90
5164;DHT22;2601;50.224;10.126;2022-09-09T11:09:31;19.80;99.90
5164;DHT22;2601;50.224;10.126;2022-09-09T11:12:00;18.70;99.90
5164;DHT22;2601;50.224;10.126;2022-09-09T11:14:57;17.10;99.90
5164;DHT22;2601;50.224;10.126;2022-09-09T11:17:30;16.50;99.90
5164;DHT22;2601;50.224;10.126;2022-09-09T11:19:59;16.50;99.90
5164;DHT22;2601;50.224;10.126;2022-09-09T11:22:29;16.80;99.90
5164;DHT22;2601;50.224;10.126;2022-09-09T11:25:02;17.10;99.90
5164;DHT22;2601;50.224;10.126;2022-09-09T11:31:06;18.90;99.90
5164;DHT22;2601;50.224;10.126;2022-09-09T11:44:38;24.00;99.90
5164;DHT22;2601;50.224;10.126;2022-09-09T11:47:04;24.00;99.90
5164;DHT22;2601;50.224;10.126;2022-09-09T11:49:42;23.30;99.90
5164;DHT22;2601;50.224;10.126;2022-09-09T11:52:38;23.60;99.90
5164;DHT22;2601;50.224;10.126;2022-09-09T11:55:24;23.50;99.90
5164;DHT22;2601;50.224;10.126;2022-09-09T11:57:59;23.30;99.90
5164;DHT22;2601;50.224;10.126;2022-09-09T12:00:38;23.40;99.90
5164;DHT22;2601;50.224;10.126;2022-09-09T12:03:06;22.60;99.90
5164;DHT22;2601;50.224;10.126;2022-09-09T12:05:52;23.10;99.90
5164;DHT22;2601;50.224;10.126;2022-09-09T12:08:27;23.90;99.90
5164;DHT22;2601;50.224;10.126;2022-09-09T12:10:58;24.60;99.90
5164;DHT22;2601;50.224;10.126;2022-09-09T12:13:28;25.00;99.70
5164;DHT22;2601;50.224;10.126;2022-09-09T12:15:57;26.10;97.80
5164;DHT22;2601;50.224;10.126;2022-09-09T12:18:43;25.90;95.50
5164;DHT22;2601;50.224;10.126;2022-09-09T12:21:24;25.10;98.20
5164;DHT22;2601;50.224;10.126;2022-09-09T12:24:09;24.00;97.50
5164;DHT22;2601;50.224;10.126;2022-09-09T12:26:58;22.80;97.80
5164;DHT22;2601;50.224;10.126;2022-09-09T12:29:31;21.90;99.90
5164;DHT22;2601;50.224;10.126;2022-09-09T12:32:14;21.10;99.90
5164;DHT22;2601;50.224;10.126;2022-09-09T12:34:47;20.80;99.90
5164;DHT22;2601;50.224;10.126;2022-09-09T12:39:53;20.30;99.90
5164;DHT22;2601;50.224;10.126;2022-09-09T12:42:21;20.30;99.90
5164;DHT22;2601;50.224;10.126;2022-09-09T12:47:19;20.50;99.90
5164;DHT22;2601;50.224;10.126;2022-09-09T12:49:47;20.50;99.90
5164;DHT22;2601;50.224;10.126;2022-09-09T12:52:26;20.40;99.90
5164;DHT22;2601;50.224;10.126;2022-09-09T12:54:52;19.90;99.90
5164;DHT22;2601;50.224;10.126;2022-09-09T12:57:21;19.80;99.90
5164;DHT22;2601;50.224;10.126;2022-09-09T12:59:48;19.70;99.90
5164;DHT22;2601;50.224;10.126;2022-09-09T13:02:24;19.80;99.90
5164;DHT22;2601;50.224;10.126;2022-09-09T13:04:51;21.00;99.90
5164;DHT22;2601;50.224;10.126;2022-09-09T13:07:21;23.00;99.60
5164;DHT22;2601;50.224;10.126;2022-09-09T13:09:48;24.80;95.40
5164;DHT22;2601;50.224;10.126;2022-09-09T13:12:21;25.20;93.60
5164;DHT22;2601;50.224;10.126;2022-09-09T13:14:55;25.00;94.50
5164;DHT22;2601;50.224;10.126;2022-09-09T13:17:26;25.80;94.00
5164;DHT22;2601;50.224;10.126;2022-09-09T13:19:54;25.60;92.40
5164;DHT22;2601;50.224;10.126;2022-09-09T13:25:21;25.80;90.90
5164;DHT22;2601;50.224;10.126;2022-09-09T13:28:20;25.60;89.10
5164;DHT22;2601;50.224;10.126;2022-09-09T13:31:05;25.90;85.50
5164;DHT22;2601;50.224;10.126;2022-09-09T13:33:36;25.10;85.60
5164;DHT22;2601;50.224;10.126;2022-09-09T13:36:10;25.40;87.10
5164;DHT22;2601;50.224;10.126;2022-09-09T13:38:57;25.60;87.10
5164;DHT22;2601;50.224;10.126;2022-09-09T13:41:44;25.40;83.50
5164;DHT22;2601;50.224;10.126;2022-09-09T13:47:20;26.70;81.90
5164;DHT22;2601;50.224;10.126;2022-09-09T13:49:46;27.40;78.30
5164;DHT22;2601;50.224;10.126;2022-09-09T13:52:13;28.40;76.60
5164;DHT22;2601;50.224;10.126;2022-09-09T13:54:41;27.60;72.20
5164;DHT22;2601;50.224;10.126;2022-09-09T13:57:22;28.10;72.20
5164;DHT22;2601;50.224;10.126;2022-09-09T13:59:49;28.70;66.60
5164;DHT22;2601;50.224;10.126;2022-09-09T14:02:16;26.80;66.70
5164;DHT22;2601;50.224;10.126;2022-09-09T14:04:43;25.00;73.80
5164;DHT22;2601;50.224;10.126;2022-09-09T14:07:12;23.00;78.30
5164;DHT22;2601;50.224;10.126;2022-09-09T14:09:39;22.00;82.00
5164;DHT22;2601;50.224;10.126;2022-09-09T14:12:08;21.10;82.40
5164;DHT22;2601;50.224;10.126;2022-09-09T14:14:34;21.00;85.00
5164;DHT22;2601;50.224;10.126;2022-09-09T14:17:00;21.10;86.60
5164;DHT22;2601;50.224;10.126;2022-09-09T14:19:26;21.80;83.40
5164;DHT22;2601;50.224;10.126;2022-09-09T14:21:51;22.20;84.70
5164;DHT22;2601;50.224;10.126;2022-09-09T14:24:17;22.90;84.60
5164;DHT22;2601;50.224;10.126;2022-09-09T14:26:43;22.80;81.90
5164;DHT22;2601;50.224;10.126;2022-09-09T14:29:08;22.10;84.50
5164;DHT22;2601;50.224;10.126;2022-09-09T14:31:34;22.10;86.00
5164;DHT22;2601;50.224;10.126;2022-09-09T14:34:00;22.30;86.80
5164;DHT22;2601;50.224;10.126;2022-09-09T14:36:25;22.70;85.10
5164;DHT22;2601;50.224;10.126;2022-09-09T14:38:51;23.00;84.90
5164;DHT22;2601;50.224;10.126;2022-09-09T14:41:18;23.00;83.50
5164;DHT22;2601;50.224;10.126;2022-09-09T14:43:45;22.00;86.70
5164;DHT22;2601;50.224;10.126;2022-09-09T14:46:16;22.30;86.90
5164;DHT22;2601;50.224;10.126;2022-09-09T14:48:42;22.50;85.80
5164;DHT22;2601;50.224;10.126;2022-09-09T14:51:17;22.40;86.10
5164;DHT22;2601;50.224;10.126;2022-09-09T14:53:43;22.10;88.40
5164;DHT22;2601;50.224;10.126;2022-09-09T14:56:13;21.80;88.70
5164;DHT22;2601;50.224;10.126;2022-09-09T14:58:40;21.60;90.00
5164;DHT22;2601;50.224;10.126;2022-09-09T15:01:10;21.40;91.40
5164;DHT22;2601;50.224;10.126;2022-09-09T15:03:37;21.50;90.90
5164;DHT22;2601;50.224;10.126;2022-09-09T15:06:22;21.60;90.90
5164;DHT22;2601;50.224;10.126;2022-09-09T15:08:50;21.60;91.30
5164;DHT22;2601;50.224;10.126;2022-09-09T15:11:17;21.70;91.50
5164;DHT22;2601;50.224;10.126;2022-09-09T15:13:44;22.10;91.30
5164;DHT22;2601;50.224;10.126;2022-09-09T15:16:15;23.10;90.20
5164;DHT22;2601;50.224;10.126;2022-09-09T15:18:42;23.30;90.20
5164;DHT22;2601;50.224;10.126;2022-09-09T15:21:12;23.10;87.80
5164;DHT22;2601;50.224;10.126;2022-09-09T15:23:38;22.70;88.70
5164;DHT22;2601;50.224;10.126;2022-09-09T15:26:05;21.90;88.90
5164;DHT22;2601;50.224;10.126;2022-09-09T15:28:35;21.80;90.30
5164;DHT22;2601;50.224;10.126;2022-09-09T15:31:06;21.60;90.40
5164;DHT22;2601;50.224;10.126;2022-09-09T15:33:33;21.60;90.50
5164;DHT22;2601;50.224;10.126;2022-09-09T15:35:59;21.60;89.20
5164;DHT22;2601;50.224;10.126;2022-09-09T15:38:25;21.50;86.60
5164;DHT22;2601;50.224;10.126;2022-09-09T15:40:56;21.30;85.70
5164;DHT22;2601;50.224;10.126;2022-09-09T15:43:23;20.90;86.60
5164;DHT22;2601;50.224;10.126;2022-09-09T15:45:56;20.70;88.20
5164;DHT22;2601;50.224;10.126;2022-09-09T15:48:31;20.70;89.50
5164;DHT22;2601;50.224;10.126;2022-09-09T15:51:03;20.70;87.90
5164;DHT22;2601;50.224;10.126;2022-09-09T15:53:30;20.90;89.30
5164;DHT22;2601;50.224;10.126;2022-09-09T15:55:58;20.80;89.10
5164;DHT22;2601;50.224;10.126;2022-09-09T15:58:24;20.80;90.00
5164;DHT22;2601;50.224;10.126;2022-09-09T16:00:50;20.80;89.90
5164;DHT22;2601;50.224;10.126;2022-09-09T16:03:16;21.50;89.20
5164;DHT22;2601;50.224;10.126;2022-09-09T16:05:42;22.10;87.70
5164;DHT22;2601;50.224;10.126;2022-09-09T16:08:08;22.00;87.50
5164;DHT22;2601;50.224;10.126;2022-09-09T16:10:34;22.00;87.90
5164;DHT22;2601;50.224;10.126;2022-09-09T16:13:00;22.80;87.00
5164;DHT22;2601;50.224;10.126;2022-09-09T16:15:25;23.00;85.70
5164;DHT22;2601;50.224;10.126;2022-09-09T16:17:53;22.60;85.90
5164;DHT22;2601;50.224;10.126;2022-09-09T16:20:19;21.80;88.20
5164;DHT22;2601;50.224;10.126;2022-09-09T16:22:45;21.20;89.80
5164;DHT22;2601;50.224;10.126;2022-09-09T16:25:11;20.90;91.00
5164;DHT22;2601;50.224;10.126;2022-09-09T16:27:37;20.70;91.40
5164;DHT22;2601;50.224;10.126;2022-09-09T16:30:03;20.60;91.70
5164;DHT22;2601;50.224;10.126;2022-09-09T16:32:29;20.50;92.10
5164;DHT22;2601;50.224;10.126;2022-09-09T16:34:55;20.60;92.50
5164;DHT22;2601;50.224;10.126;2022-09-09T16:37:21;20.60;92.90
5164;DHT22;2601;50.224;10.126;2022-09-09T16:39:47;20.60;92.60
5164;DHT22;2601;50.224;10.126;2022-09-09T16:42:12;20.40;92.80
5164;DHT22;2601;50.224;10.126;2022-09-09T16:44:38;20.40;93.10
5164;DHT22;2601;50.224;10.126;2022-09-09T16:47:04;20.20;93.60
5164;DHT22;2601;50.224;10.126;2022-09-09T16:49:30;20.00;93.80
5164;DHT22;2601;50.224;10.126;2022-09-09T16:51:58;20.00;94.30
5164;DHT22;2601;50.224;10.126;2022-09-09T16:54:24;19.90;94.70
5164;DHT22;2601;50.224;10.126;2022-09-09T16:56:52;19.80;95.00
5164;DHT22;2601;50.224;10.126;2022-09-09T16:59:19;19.70;95.40
5164;DHT22;2601;50.224;10.126;2022-09-09T17:01:49;19.60;95.70
5164;DHT22;2601;50.224;10.126;2022-09-09T17:04:22;19.50;96.00
5164;DHT22;2601;50.224;10.126;2022-09-09T17:06:52;19.40;96.60
5164;DHT22;2601;50.224;10.126;2022-09-09T17:09:19;19.40;96.70
5164;DHT22;2601;50.224;10.126;2022-09-09T17:11:45;19.30;96.80
5164;DHT22;2601;50.224;10.126;2022-09-09T17:14:16;19.00;97.20
5164;DHT22;2601;50.224;10.126;2022-09-09T17:16:42;18.90;97.20
5164;DHT22;2601;50.224;10.126;2022-09-09T17:19:09;18.90;97.70
5164;DHT22;2601;50.224;10.126;2022-09-09T17:21:35;18.80;97.80
5164;DHT22;2601;50.224;10.126;2022-09-09T17:24:02;18.80;98.00
5164;DHT22;2601;50.224;10.126;2022-09-09T17:26:29;18.70;98.40
5164;DHT22;2601;50.224;10.126;2022-09-09T17:28:56;18.60;98.10
5164;DHT22;2601;50.224;10.126;2022-09-09T17:31:24;18.50;98.20
5164;DHT22;2601;50.224;10.126;2022-09-09T17:33:50;18.50;98.40
5164;DHT22;2601;50.224;10.126;2022-09-09T17:36:30;18.40;98.80
5164;DHT22;2601;50.224;10.126;2022-09-09T17:38:56;18.30;99.20
5164;DHT22;2601;50.224;10.126;2022-09-09T17:41:28;18.30;99.50
5164;DHT22;2601;50.224;10.126;2022-09-09T17:43:54;18.20;99.90
5164;DHT22;2601;50.224;10.126;2022-09-09T17:46:22;18.10;99.90
5164;DHT22;2601;50.224;10.126;2022-09-09T17:48:50;18.00;99.90
5164;DHT22;2601;50.224;10.126;2022-09-09T17:51:18;18.00;99.90
5164;DHT22;2601;50.224;10.126;2022-09-09T17:53:48;18.00;99.90
5164;DHT22;2601;50.224;10.126;2022-09-09T17:56:16;18.00;99.90
5164;DHT22;2601;50.224;10.126;2022-09-09T17:58:42;18.00;99.90
5164;DHT22;2601;50.224;10.126;2022-09-09T18:01:12;18.00;99.90
5164;DHT22;2601;50.224;10.126;2022-09-09T18:03:43;18.00;99.90
5164;DHT22;2601;50.224;10.126;2022-09-09T18:06:11;18.00;99.90
5164;DHT22;2601;50.224;10.126;2022-09-09T18:08:39;18.10;99.90
5164;DHT22;2601;50.224;10.126;2022-09-09T18:11:06;18.00;99.90
5164;DHT22;2601;50.224;10.126;2022-09-09T18:13:32;17.90;99.90
5164;DHT22;2601;50.224;10.126;2022-09-09T18:15:59;17.90;99.90
5164;DHT22;2601;50.224;10.126;2022-09-09T18:18:25;17.80;99.90
5164;DHT22;2601;50.224;10.126;2022-09-09T18:21:02;17.70;99.90